sensor_id;sensor_type;location;lat;lon;timestamp;P1;durP1;ratioP1;P2;durP2;ratioP2
39930;SDS011;26635;-35.248;149.138;2023-02-11T00:02:00;2.03;;;1.02;;
39930;SDS011;26635;-35.248;149.138;2023-02-11T00:04:38;1.20;;;1.00;;
39930;SDS011;26635;-35.248;149.138;2023-02-11T00:07:08;1.42;;;1.02;;
39930;SDS011;26635;-35.248;149.138;2023-02-11T00:09:39;1.42;;;0.90;;
39930;SDS011;26635;-35.248;149.138;2023-02-11T00:12:09;1.67;;;1.15;;
39930;SDS011;26635;-35.248;149.138;2023-02-11T00:14:40;1.83;;;1.00;;
39930;SDS011;26635;-35.248;149.138;2023-02-11T00:17:10;2.92;;;1.20;;
39930;SDS011;26635;-35.248;149.138;2023-02-11T00:19:41;2.00;;;1.27;;
39930;SDS011;26635;-35.248;149.138;2023-02-11T00:22:11;2.55;;;1.23;;
39930;SDS011;26635;-35.248;149.138;2023-02-11T00:24:42;2.42;;;0.98;;
39930;SDS011;26635;-35.248;149.138;2023-02-11T00:27:12;2.15;;;1.10;;
39930;SDS011;26635;-35.248;149.138;2023-02-11T00:29:43;2.00;;;1.40;;
39930;SDS011;26635;-35.248;149.138;2023-02-11T00:32:13;2.63;;;1.98;;
39930;SDS011;26635;-35.248;149.138;2023-02-11T00:34:43;2.42;;;1.30;;
39930;SDS011;26635;-35.248;149.138;2023-02-11T00:37:14;2.75;;;1.30;;
39930;SDS011;26635;-35.248;149.138;2023-02-11T00:39:45;2.17;;;1.30;;
39930;SDS011;26635;-35.248;149.138;2023-02-11T00:42:18;2.78;;;1.35;;
39930;SDS011;26635;-35.248;149.138;2023-02-11T00:44:50;1.27;;;1.17;;
39930;SDS011;26635;-35.248;149.138;2023-02-11T00:47:28;2.08;;;1.13;;
39930;SDS011;26635;-35.248;149.138;2023-02-11T00:50:01;2.13;;;1.10;;
39930;SDS011;26635;-35.248;149.138;2023-02-11T00:52:45;2.38;;;1.20;;
39930;SDS011;26635;-35.248;149.138;2023-02-11T00:55:17;2.42;;;1.15;;
39930;SDS011;26635;-35.248;149.138;2023-02-11T00:57:50;1.60;;;1.20;;
39930;SDS011;26635;-35.248;149.138;2023-02-11T01:00:21;3.33;;;1.63;;
39930;SDS011;26635;-35.248;149.138;2023-02-11T01:02:52;1.75;;;1.15;;
39930;SDS011;26635;-35.248;149.138;2023-02-11T01:05:22;2.00;;;1.23;;
39930;SDS011;26635;-35.248;149.138;2023-02-11T01:07:53;2.45;;;0.70;;
39930;SDS011;26635;-35.248;149.138;2023-02-11T01:10:23;2.40;;;1.23;;
39930;SDS011;26635;-35.248;149.138;2023-02-11T01:12:54;2.17;;;1.15;;
39930;SDS011;26635;-35.248;149.138;2023-02-11T01:15:24;1.58;;;1.00;;
39930;SDS011;26635;-35.248;149.138;2023-02-11T01:17:55;1.33;;;0.80;;
39930;SDS011;26635;-35.248;149.138;2023-02-11T01:20:26;2.13;;;1.30;;
39930;SDS011;26635;-35.248;149.138;2023-02-11T01:22:57;2.00;;;1.10;;
39930;SDS011;26635;-35.248;149.138;2023-02-11T01:25:28;1.10;;;1.00;;
39930;SDS011;26635;-35.248;149.138;2023-02-11T01:27:58;1.60;;;1.15;;
39930;SDS011;26635;-35.248;149.138;2023-02-11T01:30:29;1.83;;;1.15;;
39930;SDS011;26635;-35.248;149.138;2023-02-11T01:32:59;1.83;;;1.23;;
39930;SDS011;26635;-35.248;149.138;2023-02-11T01:35:30;2.78;;;0.90;;
39930;SDS011;26635;-35.248;149.138;2023-02-11T01:38:01;1.60;;;0.85;;
39930;SDS011;26635;-35.248;149.138;2023-02-11T01:40:33;0.95;;;0.85;;
39930;SDS011;26635;-35.248;149.138;2023-02-11T01:43:04;1.92;;;0.73;;
39930;SDS011;26635;-35.248;149.138;2023-02-11T01:48:23;1.92;;;0.90;;
39930;SDS011;26635;-35.248;149.138;2023-02-11T01:51:03;1.08;;;0.65;;
39930;SDS011;26635;-35.248;149.138;2023-02-11T01:53:45;1.38;;;0.77;;
39930;SDS011;26635;-35.248;149.138;2023-02-11T01:56:36;2.70;;;0.90;;
39930;SDS011;26635;-35.248;149.138;2023-02-11T01:59:51;2.67;;;1.10;;
39930;SDS011;26635;-35.248;149.138;2023-02-11T02:11:25;2.75;;;0.80;;
39930;SDS011;26635;-35.248;149.138;2023-02-11T02:13:58;1.48;;;0.90;;
39930;SDS011;26635;-35.248;149.138;2023-02-11T02:16:31;3.28;;;0.90;;
39930;SDS011;26635;-35.248;149.138;2023-02-11T02:33:19;2.58;;;0.77;;
39930;SDS011;26635;-35.248;149.138;2023-02-11T02:38:45;0.85;;;0.63;;
39930;SDS011;26635;-35.248;149.138;2023-02-11T02:41:37;3.95;;;1.38;;
39930;SDS011;26635;-35.248;149.138;2023-02-11T02:44:09;5.20;;;0.95;;
39930;SDS011;26635;-35.248;149.138;2023-02-11T02:46:40;3.03;;;1.17;;
39930;SDS011;26635;-35.248;149.138;2023-02-11T02:49:12;4.28;;;0.70;;
39930;SDS011;26635;-35.248;149.138;2023-02-11T02:51:51;1.30;;;0.80;;
39930;SDS011;26635;-35.248;149.138;2023-02-11T03:00:24;3.13;;;0.70;;
39930;SDS011;26635;-35.248;149.138;2023-02-11T03:06:00;2.72;;;0.98;;
39930;SDS011;26635;-35.248;149.138;2023-02-11T03:11:19;1.50;;;0.50;;
39930;SDS011;26635;-35.248;149.138;2023-02-11T03:13:51;3.42;;;0.68;;
39930;SDS011;26635;-35.248;149.138;2023-02-11T03:16:26;3.40;;;0.80;;
39930;SDS011;26635;-35.248;149.138;2023-02-11T03:18:59;1.63;;;0.85;;
39930;SDS011;26635;-35.248;149.138;2023-02-11T03:21:38;3.67;;;1.40;;
39930;SDS011;26635;-35.248;149.138;2023-02-11T03:24:16;2.17;;;0.60;;
39930;SDS011;26635;-35.248;149.138;2023-02-11T03:27:17;0.85;;;0.65;;
39930;SDS011;26635;-35.248;149.138;2023-02-11T03:33:06;8.75;;;2.05;;
39930;SDS011;26635;-35.248;149.138;2023-02-11T03:36:03;4.07;;;1.02;;
39930;SDS011;26635;-35.248;149.138;2023-02-11T03:41:10;4.13;;;0.90;;
39930;SDS011;26635;-35.248;149.138;2023-02-11T03:43:45;3.28;;;0.90;;
39930;SDS011;26635;-35.248;149.138;2023-02-11T03:46:21;3.55;;;0.70;;
39930;SDS011;26635;-35.248;149.138;2023-02-11T03:49:01;4.03;;;1.33;;
39930;SDS011;26635;-35.248;149.138;2023-02-11T03:51:35;3.65;;;0.50;;
39930;SDS011;26635;-35.248;149.138;2023-02-11T03:54:10;7.55;;;1.50;;
39930;SDS011;26635;-35.248;149.138;2023-02-11T03:56:50;2.42;;;0.73;;
39930;SDS011;26635;-35.248;149.138;2023-02-11T03:59:23;2.63;;;0.75;;
39930;SDS011;26635;-35.248;149.138;2023-02-11T04:01:53;3.10;;;0.70;;
39930;SDS011;26635;-35.248;149.138;2023-02-11T04:04:25;1.95;;;0.93;;
39930;SDS011;26635;-35.248;149.138;2023-02-11T04:06:55;1.67;;;0.90;;
39930;SDS011;26635;-35.248;149.138;2023-02-11T04:09:26;2.50;;;0.60;;
39930;SDS011;26635;-35.248;149.138;2023-02-11T04:11:56;2.33;;;0.80;;
39930;SDS011;26635;-35.248;149.138;2023-02-11T04:14:34;4.40;;;0.77;;
39930;SDS011;26635;-35.248;149.138;2023-02-11T04:17:04;1.52;;;0.50;;
39930;SDS011;26635;-35.248;149.138;2023-02-11T04:19:35;2.72;;;0.90;;
39930;SDS011;26635;-35.248;149.138;2023-02-11T04:22:06;5.25;;;1.00;;
39930;SDS011;26635;-35.248;149.138;2023-02-11T04:24:36;1.88;;;0.98;;
39930;SDS011;26635;-35.248;149.138;2023-02-11T04:27:07;2.25;;;0.80;;
39930;SDS011;26635;-35.248;149.138;2023-02-11T04:29:38;4.15;;;0.90;;
39930;SDS011;26635;-35.248;149.138;2023-02-11T04:32:09;3.15;;;0.98;;
39930;SDS011;26635;-35.248;149.138;2023-02-11T04:34:40;4.03;;;1.25;;
39930;SDS011;26635;-35.248;149.138;2023-02-11T04:37:10;4.40;;;0.77;;
39930;SDS011;26635;-35.248;149.138;2023-02-11T04:39:41;2.75;;;1.05;;
39930;SDS011;26635;-35.248;149.138;2023-02-11T04:42:12;3.45;;;1.00;;
39930;SDS011;26635;-35.248;149.138;2023-02-11T04:44:43;2.83;;;0.98;;
39930;SDS011;26635;-35.248;149.138;2023-02-11T04:47:15;2.67;;;0.57;;
39930;SDS011;26635;-35.248;149.138;2023-02-11T04:49:45;4.78;;;1.45;;
39930;SDS011;26635;-35.248;149.138;2023-02-11T04:52:16;3.95;;;1.08;;
39930;SDS011;26635;-35.248;149.138;2023-02-11T04:54:47;3.28;;;0.70;;
39930;SDS011;26635;-35.248;149.138;2023-02-11T04:57:18;2.20;;;0.50;;
39930;SDS011;26635;-35.248;149.138;2023-02-11T04:59:56;1.90;;;0.70;;
39930;SDS011;26635;-35.248;149.138;2023-02-11T05:02:27;1.80;;;0.70;;
39930;SDS011;26635;-35.248;149.138;2023-02-11T05:04:57;4.82;;;0.70;;
39930;SDS011;26635;-35.248;149.138;2023-02-11T05:07:28;1.60;;;0.60;;
39930;SDS011;26635;-35.248;149.138;2023-02-11T05:09:58;2.33;;;0.63;;
39930;SDS011;26635;-35.248;149.138;2023-02-11T05:12:28;2.70;;;0.70;;
39930;SDS011;26635;-35.248;149.138;2023-02-11T05:14:59;7.13;;;1.20;;
39930;SDS011;26635;-35.248;149.138;2023-02-11T05:17:29;3.10;;;0.77;;
39930;SDS011;26635;-35.248;149.138;2023-02-11T05:20:00;2.00;;;0.93;;
39930;SDS011;26635;-35.248;149.138;2023-02-11T05:22:30;1.30;;;0.60;;
39930;SDS011;26635;-35.248;149.138;2023-02-11T05:25:01;4.10;;;0.73;;
39930;SDS011;26635;-35.248;149.138;2023-02-11T05:27:31;3.17;;;0.70;;
39930;SDS011;26635;-35.248;149.138;2023-02-11T05:30:03;2.78;;;0.95;;
39930;SDS011;26635;-35.248;149.138;2023-02-11T05:32:34;2.88;;;1.00;;
39930;SDS011;26635;-35.248;149.138;2023-02-11T05:35:06;3.53;;;0.70;;
39930;SDS011;26635;-35.248;149.138;2023-02-11T05:37:37;2.88;;;0.90;;
39930;SDS011;26635;-35.248;149.138;2023-02-11T05:40:08;2.75;;;0.85;;
39930;SDS011;26635;-35.248;149.138;2023-02-11T05:42:39;3.60;;;1.15;;
39930;SDS011;26635;-35.248;149.138;2023-02-11T05:45:10;2.05;;;0.43;;
39930;SDS011;26635;-35.248;149.138;2023-02-11T05:47:40;1.42;;;0.70;;
39930;SDS011;26635;-35.248;149.138;2023-02-11T05:50:10;1.70;;;0.57;;
39930;SDS011;26635;-35.248;149.138;2023-02-11T05:52:41;4.13;;;0.90;;
39930;SDS011;26635;-35.248;149.138;2023-02-11T05:55:11;4.10;;;0.70;;
39930;SDS011;26635;-35.248;149.138;2023-02-11T05:57:42;3.17;;;1.17;;
39930;SDS011;26635;-35.248;149.138;2023-02-11T06:00:12;5.00;;;0.75;;
39930;SDS011;26635;-35.248;149.138;2023-02-11T06:02:43;5.45;;;0.77;;
39930;SDS011;26635;-35.248;149.138;2023-02-11T06:05:14;4.57;;;1.35;;
39930;SDS011;26635;-35.248;149.138;2023-02-11T06:07:45;3.47;;;0.93;;
39930;SDS011;26635;-35.248;149.138;2023-02-11T06:10:16;2.13;;;0.60;;
39930;SDS011;26635;-35.248;149.138;2023-02-11T06:12:48;3.65;;;0.90;;
39930;SDS011;26635;-35.248;149.138;2023-02-11T06:15:20;2.97;;;0.85;;
39930;SDS011;26635;-35.248;149.138;2023-02-11T06:17:51;2.08;;;0.70;;
39930;SDS011;26635;-35.248;149.138;2023-02-11T06:20:23;1.65;;;0.70;;
39930;SDS011;26635;-35.248;149.138;2023-02-11T06:22:53;4.40;;;0.88;;
39930;SDS011;26635;-35.248;149.138;2023-02-11T06:25:24;3.05;;;0.50;;
39930;SDS011;26635;-35.248;149.138;2023-02-11T06:27:57;1.85;;;0.90;;
39930;SDS011;26635;-35.248;149.138;2023-02-11T06:30:29;1.90;;;0.60;;
39930;SDS011;26635;-35.248;149.138;2023-02-11T06:33:01;2.78;;;0.55;;
39930;SDS011;26635;-35.248;149.138;2023-02-11T06:35:32;2.50;;;0.70;;
39930;SDS011;26635;-35.248;149.138;2023-02-11T06:38:03;2.15;;;0.80;;
39930;SDS011;26635;-35.248;149.138;2023-02-11T06:40:38;2.28;;;0.75;;
39930;SDS011;26635;-35.248;149.138;2023-02-11T06:43:09;5.50;;;0.85;;
39930;SDS011;26635;-35.248;149.138;2023-02-11T06:45:41;3.28;;;0.68;;
39930;SDS011;26635;-35.248;149.138;2023-02-11T06:48:12;2.45;;;0.70;;
39930;SDS011;26635;-35.248;149.138;2023-02-11T06:50:43;2.78;;;0.85;;
39930;SDS011;26635;-35.248;149.138;2023-02-11T06:53:14;2.08;;;1.00;;
39930;SDS011;26635;-35.248;149.138;2023-02-11T06:55:45;2.53;;;0.85;;
39930;SDS011;26635;-35.248;149.138;2023-02-11T06:58:16;3.67;;;0.70;;
39930;SDS011;26635;-35.248;149.138;2023-02-11T07:00:47;4.03;;;0.80;;
39930;SDS011;26635;-35.248;149.138;2023-02-11T07:03:19;3.15;;;1.20;;
39930;SDS011;26635;-35.248;149.138;2023-02-11T07:05:50;7.40;;;1.10;;
39930;SDS011;26635;-35.248;149.138;2023-02-11T07:08:21;3.40;;;0.70;;
39930;SDS011;26635;-35.248;149.138;2023-02-11T07:10:59;4.50;;;1.10;;
39930;SDS011;26635;-35.248;149.138;2023-02-11T07:13:30;3.15;;;0.85;;
39930;SDS011;26635;-35.248;149.138;2023-02-11T07:16:04;1.77;;;0.80;;
39930;SDS011;26635;-35.248;149.138;2023-02-11T07:18:37;6.35;;;0.98;;
39930;SDS011;26635;-35.248;149.138;2023-02-11T07:21:09;2.78;;;0.73;;
39930;SDS011;26635;-35.248;149.138;2023-02-11T07:23:41;1.70;;;0.73;;
39930;SDS011;26635;-35.248;149.138;2023-02-11T07:26:13;3.95;;;0.80;;
39930;SDS011;26635;-35.248;149.138;2023-02-11T07:28:47;2.92;;;0.82;;
39930;SDS011;26635;-35.248;149.138;2023-02-11T07:31:23;2.78;;;0.70;;
39930;SDS011;26635;-35.248;149.138;2023-02-11T07:33:58;3.88;;;1.00;;
39930;SDS011;26635;-35.248;149.138;2023-02-11T07:36:31;2.08;;;0.93;;
39930;SDS011;26635;-35.248;149.138;2023-02-11T07:39:02;1.90;;;0.70;;
39930;SDS011;26635;-35.248;149.138;2023-02-11T07:41:33;2.60;;;1.00;;
39930;SDS011;26635;-35.248;149.138;2023-02-11T07:44:06;3.72;;;0.90;;
39930;SDS011;26635;-35.248;149.138;2023-02-11T07:46:38;2.75;;;0.80;;
39930;SDS011;26635;-35.248;149.138;2023-02-11T07:49:15;1.88;;;0.63;;
39930;SDS011;26635;-35.248;149.138;2023-02-11T07:51:45;2.97;;;0.75;;
39930;SDS011;26635;-35.248;149.138;2023-02-11T07:54:17;4.07;;;0.85;;
39930;SDS011;26635;-35.248;149.138;2023-02-11T07:56:48;2.45;;;0.70;;
39930;SDS011;26635;-35.248;149.138;2023-02-11T07:59:20;2.90;;;0.65;;
39930;SDS011;26635;-35.248;149.138;2023-02-11T08:01:52;3.30;;;0.60;;
39930;SDS011;26635;-35.248;149.138;2023-02-11T08:04:24;1.77;;;0.65;;
39930;SDS011;26635;-35.248;149.138;2023-02-11T08:06:55;1.63;;;0.60;;
39930;SDS011;26635;-35.248;149.138;2023-02-11T08:09:27;4.07;;;0.60;;
39930;SDS011;26635;-35.248;149.138;2023-02-11T08:12:00;2.42;;;0.68;;
39930;SDS011;26635;-35.248;149.138;2023-02-11T08:14:33;1.85;;;0.63;;
39930;SDS011;26635;-35.248;149.138;2023-02-11T08:17:04;2.55;;;0.90;;
39930;SDS011;26635;-35.248;149.138;2023-02-11T08:19:37;4.32;;;1.00;;
39930;SDS011;26635;-35.248;149.138;2023-02-11T08:22:08;3.60;;;1.13;;
39930;SDS011;26635;-35.248;149.138;2023-02-11T08:24:40;2.65;;;0.70;;
39930;SDS011;26635;-35.248;149.138;2023-02-11T08:27:11;2.03;;;0.70;;
39930;SDS011;26635;-35.248;149.138;2023-02-11T08:29:45;3.08;;;0.65;;
39930;SDS011;26635;-35.248;149.138;2023-02-11T08:32:17;2.90;;;0.60;;
39930;SDS011;26635;-35.248;149.138;2023-02-11T08:34:52;1.55;;;0.60;;
39930;SDS011;26635;-35.248;149.138;2023-02-11T08:37:25;4.53;;;0.93;;
39930;SDS011;26635;-35.248;149.138;2023-02-11T08:39:59;1.90;;;0.88;;
39930;SDS011;26635;-35.248;149.138;2023-02-11T08:42:29;3.28;;;0.85;;
39930;SDS011;26635;-35.248;149.138;2023-02-11T08:45:01;4.38;;;0.60;;
39930;SDS011;26635;-35.248;149.138;2023-02-11T08:47:33;3.92;;;1.00;;
39930;SDS011;26635;-35.248;149.138;2023-02-11T08:50:05;2.38;;;0.73;;
39930;SDS011;26635;-35.248;149.138;2023-02-11T08:52:36;4.47;;;0.70;;
39930;SDS011;26635;-35.248;149.138;2023-02-11T08:55:08;3.28;;;0.55;;
39930;SDS011;26635;-35.248;149.138;2023-02-11T08:57:40;3.45;;;1.58;;
39930;SDS011;26635;-35.248;149.138;2023-02-11T09:00:12;3.67;;;0.65;;
39930;SDS011;26635;-35.248;149.138;2023-02-11T09:02:43;1.77;;;0.50;;
39930;SDS011;26635;-35.248;149.138;2023-02-11T09:05:14;2.85;;;0.85;;
39930;SDS011;26635;-35.248;149.138;2023-02-11T09:07:47;2.72;;;0.90;;
39930;SDS011;26635;-35.248;149.138;2023-02-11T09:10:20;5.63;;;1.10;;
39930;SDS011;26635;-35.248;149.138;2023-02-11T09:12:51;3.45;;;0.90;;
39930;SDS011;26635;-35.248;149.138;2023-02-11T09:15:22;2.35;;;0.57;;
39930;SDS011;26635;-35.248;149.138;2023-02-11T09:17:53;4.07;;;0.68;;
39930;SDS011;26635;-35.248;149.138;2023-02-11T09:20:26;3.22;;;0.60;;
39930;SDS011;26635;-35.248;149.138;2023-02-11T09:22:58;3.10;;;1.20;;
39930;SDS011;26635;-35.248;149.138;2023-02-11T09:25:30;3.88;;;1.00;;
39930;SDS011;26635;-35.248;149.138;2023-02-11T09:28:01;2.58;;;0.98;;
39930;SDS011;26635;-35.248;149.138;2023-02-11T09:30:31;3.65;;;1.33;;
39930;SDS011;26635;-35.248;149.138;2023-02-11T09:33:03;2.95;;;1.77;;
39930;SDS011;26635;-35.248;149.138;2023-02-11T09:35:35;5.13;;;1.35;;
39930;SDS011;26635;-35.248;149.138;2023-02-11T09:38:06;4.45;;;1.38;;
39930;SDS011;26635;-35.248;149.138;2023-02-11T09:40:41;4.95;;;1.02;;
39930;SDS011;26635;-35.248;149.138;2023-02-11T09:45:50;3.85;;;1.17;;
39930;SDS011;26635;-35.248;149.138;2023-02-11T09:48:24;2.65;;;1.10;;
39930;SDS011;26635;-35.248;149.138;2023-02-11T09:50:56;3.78;;;1.23;;
39930;SDS011;26635;-35.248;149.138;2023-02-11T09:53:30;2.97;;;1.50;;
39930;SDS011;26635;-35.248;149.138;2023-02-11T09:56:12;3.63;;;0.90;;
39930;SDS011;26635;-35.248;149.138;2023-02-11T09:58:43;3.75;;;1.23;;
39930;SDS011;26635;-35.248;149.138;2023-02-11T10:07:24;3.55;;;1.27;;
39930;SDS011;26635;-35.248;149.138;2023-02-11T10:18:50;2.97;;;1.20;;
39930;SDS011;26635;-35.248;149.138;2023-02-11T10:21:31;2.38;;;1.10;;
39930;SDS011;26635;-35.248;149.138;2023-02-11T10:24:23;2.60;;;1.00;;
39930;SDS011;26635;-35.248;149.138;2023-02-11T10:26:56;5.28;;;1.20;;
39930;SDS011;26635;-35.248;149.138;2023-02-11T10:29:33;4.65;;;1.33;;
39930;SDS011;26635;-35.248;149.138;2023-02-11T10:35:08;6.07;;;1.48;;
39930;SDS011;26635;-35.248;149.138;2023-02-11T10:37:49;2.35;;;1.00;;
39930;SDS011;26635;-35.248;149.138;2023-02-11T10:40:22;5.45;;;1.13;;
39930;SDS011;26635;-35.248;149.138;2023-02-11T10:42:56;6.05;;;1.10;;
39930;SDS011;26635;-35.248;149.138;2023-02-11T10:46:03;3.08;;;0.98;;
39930;SDS011;26635;-35.248;149.138;2023-02-11T10:48:44;4.40;;;1.85;;
39930;SDS011;26635;-35.248;149.138;2023-02-11T10:51:23;3.83;;;1.40;;
39930;SDS011;26635;-35.248;149.138;2023-02-11T10:56:34;5.03;;;1.08;;
39930;SDS011;26635;-35.248;149.138;2023-02-11T11:01:48;5.53;;;1.25;;
39930;SDS011;26635;-35.248;149.138;2023-02-11T11:14:59;3.80;;;1.33;;
39930;SDS011;26635;-35.248;149.138;2023-02-11T11:17:41;6.75;;;1.40;;
39930;SDS011;26635;-35.248;149.138;2023-02-11T11:20:51;4.10;;;1.70;;
39930;SDS011;26635;-35.248;149.138;2023-02-11T11:23:17;7.43;;;3.10;;
39930;SDS011;26635;-35.248;149.138;2023-02-11T11:26:11;7.85;;;2.10;;
39930;SDS011;26635;-35.248;149.138;2023-02-11T11:28:55;5.13;;;1.42;;
39930;SDS011;26635;-35.248;149.138;2023-02-11T11:31:46;4.35;;;1.38;;
39930;SDS011;26635;-35.248;149.138;2023-02-11T11:36:56;7.63;;;2.42;;
39930;SDS011;26635;-35.248;149.138;2023-02-11T11:39:29;5.97;;;1.95;;
39930;SDS011;26635;-35.248;149.138;2023-02-11T11:42:04;5.15;;;2.13;;
39930;SDS011;26635;-35.248;149.138;2023-02-11T11:45:00;6.90;;;1.48;;
39930;SDS011;26635;-35.248;149.138;2023-02-11T11:50:52;4.60;;;1.52;;
39930;SDS011;26635;-35.248;149.138;2023-02-11T11:58:51;6.57;;;1.83;;
39930;SDS011;26635;-35.248;149.138;2023-02-11T12:07:25;5.85;;;1.67;;
39930;SDS011;26635;-35.248;149.138;2023-02-11T12:32:46;4.35;;;1.45;;
39930;SDS011;26635;-35.248;149.138;2023-02-11T12:38:05;4.18;;;1.60;;
39930;SDS011;26635;-35.248;149.138;2023-02-11T12:44:15;6.90;;;1.52;;
39930;SDS011;26635;-35.248;149.138;2023-02-11T12:47:04;5.45;;;1.98;;
39930;SDS011;26635;-35.248;149.138;2023-02-11T12:50:15;5.45;;;1.98;;
39930;SDS011;26635;-35.248;149.138;2023-02-11T12:55:37;3.78;;;1.42;;
39930;SDS011;26635;-35.248;149.138;2023-02-11T12:58:14;5.60;;;1.73;;
39930;SDS011;26635;-35.248;149.138;2023-02-11T13:01:10;5.60;;;1.30;;
39930;SDS011;26635;-35.248;149.138;2023-02-11T13:03:57;5.50;;;1.45;;
39930;SDS011;26635;-35.248;149.138;2023-02-11T13:06:44;7.93;;;1.65;;
39930;SDS011;26635;-35.248;149.138;2023-02-11T13:09:24;3.95;;;1.77;;
39930;SDS011;26635;-35.248;149.138;2023-02-11T13:12:01;6.55;;;1.88;;
39930;SDS011;26635;-35.248;149.138;2023-02-11T13:14:52;7.68;;;1.42;;
39930;SDS011;26635;-35.248;149.138;2023-02-11T13:17:38;4.85;;;1.42;;
39930;SDS011;26635;-35.248;149.138;2023-02-11T13:20:39;6.40;;;1.50;;
39930;SDS011;26635;-35.248;149.138;2023-02-11T13:26:13;3.17;;;1.17;;
39930;SDS011;26635;-35.248;149.138;2023-02-11T13:32:07;5.43;;;1.83;;
39930;SDS011;26635;-35.248;149.138;2023-02-11T13:39:55;3.63;;;1.48;;
39930;SDS011;26635;-35.248;149.138;2023-02-11T13:42:46;5.68;;;1.20;;
39930;SDS011;26635;-35.248;149.138;2023-02-11T13:48:22;6.68;;;1.08;;
39930;SDS011;26635;-35.248;149.138;2023-02-11T13:51:04;4.65;;;1.30;;
39930;SDS011;26635;-35.248;149.138;2023-02-11T14:05:01;3.05;;;0.90;;
39930;SDS011;26635;-35.248;149.138;2023-02-11T14:14:02;4.25;;;1.33;;
39930;SDS011;26635;-35.248;149.138;2023-02-11T14:19:38;7.32;;;1.98;;
39930;SDS011;26635;-35.248;149.138;2023-02-11T14:22:16;5.50;;;1.40;;
39930;SDS011;26635;-35.248;149.138;2023-02-11T14:24:59;3.35;;;1.10;;
39930;SDS011;26635;-35.248;149.138;2023-02-11T14:39:13;4.93;;;1.10;;
39930;SDS011;26635;-35.248;149.138;2023-02-11T14:41:50;5.35;;;1.73;;
39930;SDS011;26635;-35.248;149.138;2023-02-11T14:44:24;5.70;;;1.23;;
39930;SDS011;26635;-35.248;149.138;2023-02-11T14:47:00;5.72;;;1.25;;
39930;SDS011;26635;-35.248;149.138;2023-02-11T14:49:35;7.35;;;1.73;;
39930;SDS011;26635;-35.248;149.138;2023-02-11T14:54:59;4.90;;;1.50;;
39930;SDS011;26635;-35.248;149.138;2023-02-11T14:58:03;8.07;;;1.38;;
39930;SDS011;26635;-35.248;149.138;2023-02-11T15:00:35;5.72;;;1.30;;
39930;SDS011;26635;-35.248;149.138;2023-02-11T15:08:33;6.07;;;1.17;;
39930;SDS011;26635;-35.248;149.138;2023-02-11T15:11:11;3.85;;;1.52;;
39930;SDS011;26635;-35.248;149.138;2023-02-11T15:13:44;6.00;;;1.40;;
39930;SDS011;26635;-35.248;149.138;2023-02-11T15:16:17;4.28;;;1.98;;
39930;SDS011;26635;-35.248;149.138;2023-02-11T15:18:53;7.05;;;1.42;;
39930;SDS011;26635;-35.248;149.138;2023-02-11T15:21:31;9.68;;;1.85;;
39930;SDS011;26635;-35.248;149.138;2023-02-11T15:24:17;4.18;;;1.17;;
39930;SDS011;26635;-35.248;149.138;2023-02-11T15:26:56;5.97;;;1.58;;
39930;SDS011;26635;-35.248;149.138;2023-02-11T15:29:36;9.05;;;1.80;;
39930;SDS011;26635;-35.248;149.138;2023-02-11T15:34:51;6.13;;;1.35;;
39930;SDS011;26635;-35.248;149.138;2023-02-11T15:37:26;6.15;;;1.30;;
39930;SDS011;26635;-35.248;149.138;2023-02-11T15:40:08;6.75;;;1.33;;
39930;SDS011;26635;-35.248;149.138;2023-02-11T15:42:51;7.82;;;1.65;;
39930;SDS011;26635;-35.248;149.138;2023-02-11T15:45:43;4.97;;;1.33;;
39930;SDS011;26635;-35.248;149.138;2023-02-11T15:51:20;3.88;;;1.42;;
39930;SDS011;26635;-35.248;149.138;2023-02-11T15:54:01;4.47;;;1.45;;
39930;SDS011;26635;-35.248;149.138;2023-02-11T15:59:24;6.47;;;1.40;;
39930;SDS011;26635;-35.248;149.138;2023-02-11T16:04:38;5.90;;;1.40;;
39930;SDS011;26635;-35.248;149.138;2023-02-11T16:10:28;9.35;;;1.65;;
39930;SDS011;26635;-35.248;149.138;2023-02-11T16:18:32;9.30;;;2.72;;
39930;SDS011;26635;-35.248;149.138;2023-02-11T16:21:17;5.70;;;1.55;;
39930;SDS011;26635;-35.248;149.138;2023-02-11T16:23:52;4.20;;;1.15;;
39930;SDS011;26635;-35.248;149.138;2023-02-11T16:26:36;6.90;;;1.98;;
39930;SDS011;26635;-35.248;149.138;2023-02-11T16:29:21;4.45;;;1.80;;
39930;SDS011;26635;-35.248;149.138;2023-02-11T16:32:08;5.60;;;1.58;;
39930;SDS011;26635;-35.248;149.138;2023-02-11T16:34:42;8.80;;;2.22;;
39930;SDS011;26635;-35.248;149.138;2023-02-11T16:37:15;3.28;;;1.35;;
39930;SDS011;26635;-35.248;149.138;2023-02-11T16:39:46;4.20;;;1.65;;
39930;SDS011;26635;-35.248;149.138;2023-02-11T16:42:17;5.28;;;1.55;;
39930;SDS011;26635;-35.248;149.138;2023-02-11T16:44:50;6.13;;;1.55;;
39930;SDS011;26635;-35.248;149.138;2023-02-11T16:47:30;5.53;;;1.45;;
39930;SDS011;26635;-35.248;149.138;2023-02-11T16:50:02;5.38;;;1.15;;
39930;SDS011;26635;-35.248;149.138;2023-02-11T16:52:36;6.35;;;1.50;;
39930;SDS011;26635;-35.248;149.138;2023-02-11T16:55:08;6.80;;;2.95;;
39930;SDS011;26635;-35.248;149.138;2023-02-11T16:57:41;7.03;;;1.58;;
39930;SDS011;26635;-35.248;149.138;2023-02-11T17:00:14;6.57;;;2.33;;
39930;SDS011;26635;-35.248;149.138;2023-02-11T17:02:45;9.20;;;1.65;;
39930;SDS011;26635;-35.248;149.138;2023-02-11T17:05:19;5.70;;;2.60;;
39930;SDS011;26635;-35.248;149.138;2023-02-11T17:07:52;4.50;;;1.60;;
39930;SDS011;26635;-35.248;149.138;2023-02-11T17:10:23;6.60;;;1.63;;
39930;SDS011;26635;-35.248;149.138;2023-02-11T17:12:53;7.20;;;1.85;;
39930;SDS011;26635;-35.248;149.138;2023-02-11T17:15:24;6.35;;;2.03;;
39930;SDS011;26635;-35.248;149.138;2023-02-11T17:17:55;3.08;;;1.77;;
39930;SDS011;26635;-35.248;149.138;2023-02-11T17:20:26;8.10;;;1.48;;
39930;SDS011;26635;-35.248;149.138;2023-02-11T17:22:57;9.70;;;2.20;;
39930;SDS011;26635;-35.248;149.138;2023-02-11T17:25:27;7.93;;;2.00;;
39930;SDS011;26635;-35.248;149.138;2023-02-11T17:27:57;4.80;;;2.35;;
39930;SDS011;26635;-35.248;149.138;2023-02-11T17:30:28;4.65;;;1.40;;
39930;SDS011;26635;-35.248;149.138;2023-02-11T17:32:59;3.90;;;1.63;;
39930;SDS011;26635;-35.248;149.138;2023-02-11T17:35:29;6.15;;;1.40;;
39930;SDS011;26635;-35.248;149.138;2023-02-11T17:38:00;6.60;;;1.60;;
39930;SDS011;26635;-35.248;149.138;2023-02-11T17:40:31;7.68;;;1.73;;
39930;SDS011;26635;-35.248;149.138;2023-02-11T17:43:02;5.13;;;2.15;;
39930;SDS011;26635;-35.248;149.138;2023-02-11T17:45:39;4.22;;;1.42;;
39930;SDS011;26635;-35.248;149.138;2023-02-11T17:48:10;2.95;;;1.05;;
39930;SDS011;26635;-35.248;149.138;2023-02-11T17:50:42;5.75;;;1.98;;
39930;SDS011;26635;-35.248;149.138;2023-02-11T17:53:12;5.55;;;1.30;;
39930;SDS011;26635;-35.248;149.138;2023-02-11T17:55:43;6.65;;;1.58;;
39930;SDS011;26635;-35.248;149.138;2023-02-11T17:58:15;5.43;;;1.75;;
39930;SDS011;26635;-35.248;149.138;2023-02-11T18:00:45;6.97;;;2.38;;
39930;SDS011;26635;-35.248;149.138;2023-02-11T18:03:17;8.20;;;1.90;;
39930;SDS011;26635;-35.248;149.138;2023-02-11T18:05:48;8.80;;;2.25;;
39930;SDS011;26635;-35.248;149.138;2023-02-11T18:08:29;4.55;;;1.70;;
39930;SDS011;26635;-35.248;149.138;2023-02-11T18:11:02;5.65;;;1.88;;
39930;SDS011;26635;-35.248;149.138;2023-02-11T18:13:38;7.20;;;2.47;;
39930;SDS011;26635;-35.248;149.138;2023-02-11T18:16:11;6.75;;;1.88;;
39930;SDS011;26635;-35.248;149.138;2023-02-11T18:18:45;5.53;;;1.70;;